Terminal Aerodrome Forecast
Issued by NWS Wakefield, VA

Home | Current Version | Previous Version | Text Only | Print | Product List | Glossary On
Versions: 1 2 3 4 5 6 7 8 9 10 11 12 13 14 15 16 17 18 19 20 21 22 23 24 25 26 27 28
000
FTUS41 KAKQ 051500 AAA
TAFSBY
TAF AMD
KSBY 051510Z 0515/0612 01012G18KT 2SM -RA BR OVC008
      TEMPO 0516/0519 3/4SM -PL BR OVC004
     FM051900 01014G21KT 1/2SM SN FG OVC004
     FM060300 35014G21KT P6SM SCT025=

USA.gov is the U.S. government's official web portal to all federal, state and local government web resources and services.